sensor_id;sensor_type;location;lat;lon;timestamp;pressure;altitude;pressure_sealevel;temperature;humidity
12215;BME280;6170;42.206;24.142;2023-05-24T00:02:13;98536.09;;;15.56;77.93
12215;BME280;6170;42.206;24.142;2023-05-24T00:04:39;98533.31;;;15.51;77.66
12215;BME280;6170;42.206;24.142;2023-05-24T00:07:06;98537.31;;;15.37;77.69
12215;BME280;6170;42.206;24.142;2023-05-24T00:09:35;98586.28;;;15.81;77.68
12215;BME280;6170;42.206;24.142;2023-05-24T00:12:02;98541.25;;;15.46;77.50
12215;BME280;6170;42.206;24.142;2023-05-24T00:14:29;98533.66;;;15.43;77.69
12215;BME280;6170;42.206;24.142;2023-05-24T00:16:56;98535.84;;;15.58;77.34
12215;BME280;6170;42.206;24.142;2023-05-24T00:19:23;98529.41;;;15.47;77.13
12215;BME280;6170;42.206;24.142;2023-05-24T00:21:50;98539.78;;;15.27;77.57
12215;BME280;6170;42.206;24.142;2023-05-24T00:24:17;98539.75;;;15.50;77.48
12215;BME280;6170;42.206;24.142;2023-05-24T00:26:45;98530.69;;;15.45;77.13
12215;BME280;6170;42.206;24.142;2023-05-24T00:29:12;98516.38;;;15.04;78.00
12215;BME280;6170;42.206;24.142;2023-05-24T00:31:39;98526.34;;;14.92;79.17
12215;BME280;6170;42.206;24.142;2023-05-24T00:34:06;98567.47;;;15.34;78.68
12215;BME280;6170;42.206;24.142;2023-05-24T00:36:33;98523.91;;;14.91;79.33
12215;BME280;6170;42.206;24.142;2023-05-24T00:39:02;98567.22;;;15.36;79.12
12215;BME280;6170;42.206;24.142;2023-05-24T00:41:29;98523.06;;;15.02;79.57
12215;BME280;6170;42.206;24.142;2023-05-24T00:43:58;98518.06;;;14.82;80.46
12215;BME280;6170;42.206;24.142;2023-05-24T00:46:27;98514.19;;;14.66;80.40
12215;BME280;6170;42.206;24.142;2023-05-24T00:48:55;98519.94;;;14.81;81.02
12215;BME280;6170;42.206;24.142;2023-05-24T00:51:23;98509.13;;;14.93;79.56
12215;BME280;6170;42.206;24.142;2023-05-24T00:53:51;98555.19;;;15.26;79.89
12215;BME280;6170;42.206;24.142;2023-05-24T00:56:18;98514.06;;;14.84;79.65
12215;BME280;6170;42.206;24.142;2023-05-24T00:58:46;98512.53;;;14.65;79.77
12215;BME280;6170;42.206;24.142;2023-05-24T01:01:16;98507.50;;;14.46;80.70
12215;BME280;6170;42.206;24.142;2023-05-24T01:03:43;98518.06;;;14.59;80.25
12215;BME280;6170;42.206;24.142;2023-05-24T01:06:12;98496.94;;;14.44;79.97
12215;BME280;6170;42.206;24.142;2023-05-24T01:08:51;98510.19;;;14.57;79.95
12215;BME280;6170;42.206;24.142;2023-05-24T01:11:25;98543.34;;;14.69;80.38
12215;BME280;6170;42.206;24.142;2023-05-24T01:14:01;98489.81;;;14.50;80.28
12215;BME280;6170;42.206;24.142;2023-05-24T01:16:38;98489.13;;;14.43;79.84
12215;BME280;6170;42.206;24.142;2023-05-24T01:19:38;98501.41;;;14.62;79.55
12215;BME280;6170;42.206;24.142;2023-05-24T01:22:13;98487.69;;;14.40;80.16
12215;BME280;6170;42.206;24.142;2023-05-24T01:24:55;98496.81;;;14.39;80.49
12215;BME280;6170;42.206;24.142;2023-05-24T01:27:29;98492.38;;;14.45;79.92
12215;BME280;6170;42.206;24.142;2023-05-24T01:29:58;98496.81;;;14.62;79.49
12215;BME280;6170;42.206;24.142;2023-05-24T01:32:25;98495.53;;;14.53;79.46
12215;BME280;6170;42.206;24.142;2023-05-24T01:34:52;98494.50;;;14.77;78.64
12215;BME280;6170;42.206;24.142;2023-05-24T01:37:19;98484.75;;;14.53;78.80
12215;BME280;6170;42.206;24.142;2023-05-24T01:39:46;98533.97;;;14.83;78.99
12215;BME280;6170;42.206;24.142;2023-05-24T01:42:21;98540.91;;;14.68;79.57
12215;BME280;6170;42.206;24.142;2023-05-24T01:44:56;98546.31;;;14.91;79.36
12215;BME280;6170;42.206;24.142;2023-05-24T01:47:33;98499.50;;;14.74;79.27
12215;BME280;6170;42.206;24.142;2023-05-24T01:50:13;98540.19;;;15.07;78.76
12215;BME280;6170;42.206;24.142;2023-05-24T01:52:44;98498.47;;;14.52;79.74
12215;BME280;6170;42.206;24.142;2023-05-24T01:55:13;98494.38;;;14.72;79.70
12215;BME280;6170;42.206;24.142;2023-05-24T01:57:44;98502.44;;;14.61;79.96
12215;BME280;6170;42.206;24.142;2023-05-24T02:00:14;98505.63;;;14.46;79.95
12215;BME280;6170;42.206;24.142;2023-05-24T02:02:42;98550.38;;;14.47;80.77
12215;BME280;6170;42.206;24.142;2023-05-24T02:05:09;98546.06;;;14.46;80.81
12215;BME280;6170;42.206;24.142;2023-05-24T02:07:36;98486.00;;;14.16;80.18
12215;BME280;6170;42.206;24.142;2023-05-24T02:10:04;98501.97;;;14.29;79.42
12215;BME280;6170;42.206;24.142;2023-05-24T02:12:31;98546.75;;;14.53;79.96
12215;BME280;6170;42.206;24.142;2023-05-24T02:14:58;98503.66;;;14.12;80.39
12215;BME280;6170;42.206;24.142;2023-05-24T02:17:27;98515.25;;;14.12;80.73
12215;BME280;6170;42.206;24.142;2023-05-24T02:19:57;98514.91;;;14.09;81.13
12215;BME280;6170;42.206;24.142;2023-05-24T02:22:24;98502.06;;;14.22;80.80
12215;BME280;6170;42.206;24.142;2023-05-24T02:24:51;98503.63;;;14.42;79.96
12215;BME280;6170;42.206;24.142;2023-05-24T02:27:19;98516.16;;;14.36;79.42
12215;BME280;6170;42.206;24.142;2023-05-24T02:29:46;98521.50;;;14.24;79.34
12215;BME280;6170;42.206;24.142;2023-05-24T02:32:13;98510.97;;;14.34;79.57
12215;BME280;6170;42.206;24.142;2023-05-24T02:34:41;98553.03;;;14.24;80.41
12215;BME280;6170;42.206;24.142;2023-05-24T02:37:08;98526.50;;;13.98;80.74
12215;BME280;6170;42.206;24.142;2023-05-24T02:39:38;98565.53;;;14.18;80.96
12215;BME280;6170;42.206;24.142;2023-05-24T02:42:06;98524.28;;;13.76;81.44
12215;BME280;6170;42.206;24.142;2023-05-24T02:44:35;98524.22;;;13.83;81.42
12215;BME280;6170;42.206;24.142;2023-05-24T02:47:02;98533.25;;;13.88;81.30
12215;BME280;6170;42.206;24.142;2023-05-24T02:49:29;98519.50;;;13.78;81.61
12215;BME280;6170;42.206;24.142;2023-05-24T02:51:58;98522.84;;;13.62;82.65
12215;BME280;6170;42.206;24.142;2023-05-24T02:54:25;98553.34;;;13.74;82.84
12215;BME280;6170;42.206;24.142;2023-05-24T02:56:52;98481.13;;;13.23;82.90
12215;BME280;6170;42.206;24.142;2023-05-24T02:59:21;98570.56;;;13.55;83.98
12215;BME280;6170;42.206;24.142;2023-05-24T03:01:48;98530.72;;;13.45;83.54
12215;BME280;6170;42.206;24.142;2023-05-24T03:04:15;98572.88;;;13.70;83.32
12215;BME280;6170;42.206;24.142;2023-05-24T03:06:41;98522.56;;;13.52;82.99
12215;BME280;6170;42.206;24.142;2023-05-24T03:09:10;98528.28;;;13.44;82.35
12215;BME280;6170;42.206;24.142;2023-05-24T03:11:37;98578.03;;;13.71;83.27
12215;BME280;6170;42.206;24.142;2023-05-24T03:14:04;98522.34;;;13.54;83.00
12215;BME280;6170;42.206;24.142;2023-05-24T03:16:34;98569.66;;;13.91;82.74
12215;BME280;6170;42.206;24.142;2023-05-24T03:19:01;98519.00;;;13.70;82.51
12215;BME280;6170;42.206;24.142;2023-05-24T03:21:28;98568.31;;;14.12;82.50
12215;BME280;6170;42.206;24.142;2023-05-24T03:23:55;98518.34;;;13.86;82.23
12215;BME280;6170;42.206;24.142;2023-05-24T03:26:23;98520.31;;;14.09;81.43
12215;BME280;6170;42.206;24.142;2023-05-24T03:28:51;98562.34;;;14.39;80.84
12215;BME280;6170;42.206;24.142;2023-05-24T03:31:18;98509.66;;;13.72;81.47
12215;BME280;6170;42.206;24.142;2023-05-24T03:33:48;98548.88;;;14.10;80.87
12215;BME280;6170;42.206;24.142;2023-05-24T03:36:15;98519.03;;;14.23;80.77
12215;BME280;6170;42.206;24.142;2023-05-24T03:38:42;98563.41;;;14.62;80.62
12215;BME280;6170;42.206;24.142;2023-05-24T03:41:09;98506.97;;;14.25;80.89
12215;BME280;6170;42.206;24.142;2023-05-24T03:43:37;98561.81;;;14.31;81.09
12215;BME280;6170;42.206;24.142;2023-05-24T03:46:04;98576.94;;;14.32;82.13
12215;BME280;6170;42.206;24.142;2023-05-24T03:48:31;98526.78;;;14.19;82.29
12215;BME280;6170;42.206;24.142;2023-05-24T03:50:58;98578.53;;;14.74;81.83
12215;BME280;6170;42.206;24.142;2023-05-24T03:53:25;98532.00;;;14.44;81.86
12215;BME280;6170;42.206;24.142;2023-05-24T03:55:52;98534.22;;;14.59;81.55
12215;BME280;6170;42.206;24.142;2023-05-24T03:58:19;98577.59;;;14.92;81.04
12215;BME280;6170;42.206;24.142;2023-05-24T04:00:48;98578.06;;;15.01;79.77
12215;BME280;6170;42.206;24.142;2023-05-24T04:03:15;98543.25;;;14.99;79.89
12215;BME280;6170;42.206;24.142;2023-05-24T04:05:44;98546.38;;;15.19;79.42
12215;BME280;6170;42.206;24.142;2023-05-24T04:08:11;98553.06;;;15.28;78.42
12215;BME280;6170;42.206;24.142;2023-05-24T04:10:39;98546.41;;;15.59;77.69
12215;BME280;6170;42.206;24.142;2023-05-24T04:13:07;98551.63;;;15.38;79.14
12215;BME280;6170;42.206;24.142;2023-05-24T04:15:34;98557.28;;;16.21;77.75
12215;BME280;6170;42.206;24.142;2023-05-24T04:18:04;98563.41;;;16.61;76.13
12215;BME280;6170;42.206;24.142;2023-05-24T04:20:31;98553.13;;;16.30;75.05
12215;BME280;6170;42.206;24.142;2023-05-24T04:22:58;98563.31;;;16.90;74.37
12215;BME280;6170;42.206;24.142;2023-05-24T04:25:25;98568.72;;;17.06;72.19
12215;BME280;6170;42.206;24.142;2023-05-24T04:27:52;98559.66;;;17.18;72.40
12215;BME280;6170;42.206;24.142;2023-05-24T04:30:20;98578.50;;;17.51;70.57
12215;BME280;6170;42.206;24.142;2023-05-24T04:32:47;98574.00;;;17.18;72.33
12215;BME280;6170;42.206;24.142;2023-05-24T04:35:16;98562.72;;;17.86;69.29
12215;BME280;6170;42.206;24.142;2023-05-24T04:37:44;98599.38;;;17.94;69.02
12215;BME280;6170;42.206;24.142;2023-05-24T04:40:12;98570.44;;;18.53;67.71
12215;BME280;6170;42.206;24.142;2023-05-24T04:42:40;98621.91;;;19.49;66.59
12215;BME280;6170;42.206;24.142;2023-05-24T04:45:08;98570.34;;;19.17;65.88
12215;BME280;6170;42.206;24.142;2023-05-24T04:47:35;98562.13;;;19.54;66.24
12215;BME280;6170;42.206;24.142;2023-05-24T04:50:02;98619.81;;;20.38;65.00
12215;BME280;6170;42.206;24.142;2023-05-24T04:52:32;98571.03;;;20.22;63.50
12215;BME280;6170;42.206;24.142;2023-05-24T04:55:00;98576.81;;;20.30;64.05
12215;BME280;6170;42.206;24.142;2023-05-24T04:57:28;98584.38;;;20.23;64.42
12215;BME280;6170;42.206;24.142;2023-05-24T04:59:54;98583.91;;;20.51;64.10
12215;BME280;6170;42.206;24.142;2023-05-24T05:02:21;98586.56;;;20.26;65.01
12215;BME280;6170;42.206;24.142;2023-05-24T05:04:50;98583.34;;;20.49;62.87
12215;BME280;6170;42.206;24.142;2023-05-24T05:07:17;98615.75;;;20.96;62.70
12215;BME280;6170;42.206;24.142;2023-05-24T05:09:46;98624.47;;;21.08;60.92
12215;BME280;6170;42.206;24.142;2023-05-24T05:12:13;98582.78;;;20.32;61.12
12215;BME280;6170;42.206;24.142;2023-05-24T05:14:40;98624.75;;;20.97;61.84
12215;BME280;6170;42.206;24.142;2023-05-24T05:17:07;98573.81;;;21.18;58.03
12215;BME280;6170;42.206;24.142;2023-05-24T05:19:34;98571.09;;;21.82;57.92
12215;BME280;6170;42.206;24.142;2023-05-24T05:22:01;98557.00;;;22.58;58.26
12215;BME280;6170;42.206;24.142;2023-05-24T05:24:28;98574.38;;;22.77;56.96
12215;BME280;6170;42.206;24.142;2023-05-24T05:26:56;98581.50;;;23.02;54.01
12215;BME280;6170;42.206;24.142;2023-05-24T05:29:23;98576.59;;;23.56;56.33
12215;BME280;6170;42.206;24.142;2023-05-24T05:31:49;98561.06;;;23.52;56.87
12215;BME280;6170;42.206;24.142;2023-05-24T05:34:17;98615.28;;;24.16;55.80
12215;BME280;6170;42.206;24.142;2023-05-24T05:36:45;98580.75;;;23.72;54.90
12215;BME280;6170;42.206;24.142;2023-05-24T05:39:12;98612.53;;;24.35;55.39
12215;BME280;6170;42.206;24.142;2023-05-24T05:41:39;98599.28;;;24.60;53.45
12215;BME280;6170;42.206;24.142;2023-05-24T05:44:10;98583.22;;;24.35;53.55
12215;BME280;6170;42.206;24.142;2023-05-24T05:46:37;98587.63;;;23.94;52.56
12215;BME280;6170;42.206;24.142;2023-05-24T05:49:06;98577.69;;;23.55;56.91
12215;BME280;6170;42.206;24.142;2023-05-24T05:51:33;98575.78;;;23.56;55.54
12215;BME280;6170;42.206;24.142;2023-05-24T05:54:00;98580.13;;;24.23;54.85
12215;BME280;6170;42.206;24.142;2023-05-24T05:56:27;98578.66;;;24.82;53.31
12215;BME280;6170;42.206;24.142;2023-05-24T05:58:54;98583.59;;;24.98;54.31
12215;BME280;6170;42.206;24.142;2023-05-24T06:01:22;98582.69;;;24.52;53.65
12215;BME280;6170;42.206;24.142;2023-05-24T06:03:50;98586.66;;;24.03;55.19
12215;BME280;6170;42.206;24.142;2023-05-24T06:06:17;98592.63;;;24.29;54.39
12215;BME280;6170;42.206;24.142;2023-05-24T06:08:44;98581.47;;;24.02;53.93
12215;BME280;6170;42.206;24.142;2023-05-24T06:11:11;98585.66;;;24.55;53.14
12215;BME280;6170;42.206;24.142;2023-05-24T06:13:37;98569.34;;;23.89;55.92
12215;BME280;6170;42.206;24.142;2023-05-24T06:16:05;98626.22;;;24.72;55.95
12215;BME280;6170;42.206;24.142;2023-05-24T06:18:34;98629.09;;;24.99;55.22
12215;BME280;6170;42.206;24.142;2023-05-24T06:21:01;98585.59;;;25.39;51.89
12215;BME280;6170;42.206;24.142;2023-05-24T06:23:28;98627.59;;;25.53;55.57
12215;BME280;6170;42.206;24.142;2023-05-24T06:25:55;98589.56;;;24.87;55.60
12215;BME280;6170;42.206;24.142;2023-05-24T06:28:22;98631.22;;;25.35;56.24
12215;BME280;6170;42.206;24.142;2023-05-24T06:30:48;98597.91;;;24.77;52.36
12215;BME280;6170;42.206;24.142;2023-05-24T06:33:16;98606.63;;;24.46;55.37
12215;BME280;6170;42.206;24.142;2023-05-24T06:35:44;98597.13;;;24.57;53.80
12215;BME280;6170;42.206;24.142;2023-05-24T06:38:11;98599.47;;;25.61;55.12
12215;BME280;6170;42.206;24.142;2023-05-24T06:40:38;98591.75;;;24.85;53.22
12215;BME280;6170;42.206;24.142;2023-05-24T06:43:05;98631.41;;;25.38;55.17
12215;BME280;6170;42.206;24.142;2023-05-24T06:45:32;98593.84;;;25.53;52.16
12215;BME280;6170;42.206;24.142;2023-05-24T06:47:59;98592.16;;;24.59;54.31
12215;BME280;6170;42.206;24.142;2023-05-24T06:50:26;98628.84;;;25.61;54.76
12215;BME280;6170;42.206;24.142;2023-05-24T06:52:54;98583.63;;;26.57;51.15
12215;BME280;6170;42.206;24.142;2023-05-24T06:55:21;98569.50;;;26.86;49.09
12215;BME280;6170;42.206;24.142;2023-05-24T06:57:48;98607.56;;;27.23;50.69
12215;BME280;6170;42.206;24.142;2023-05-24T07:00:16;98572.44;;;27.20;50.33
12215;BME280;6170;42.206;24.142;2023-05-24T07:02:43;98610.03;;;27.56;50.13
12215;BME280;6170;42.206;24.142;2023-05-24T07:05:10;98574.63;;;27.72;49.95
12215;BME280;6170;42.206;24.142;2023-05-24T07:07:37;98570.84;;;26.97;50.32
12215;BME280;6170;42.206;24.142;2023-05-24T07:10:07;98599.47;;;27.97;48.56
12215;BME280;6170;42.206;24.142;2023-05-24T07:12:35;98570.41;;;28.31;47.34
12215;BME280;6170;42.206;24.142;2023-05-24T07:15:02;98602.25;;;27.58;51.20
12215;BME280;6170;42.206;24.142;2023-05-24T07:17:29;98553.94;;;27.91;46.52
12215;BME280;6170;42.206;24.142;2023-05-24T07:19:56;98564.56;;;28.58;47.76
12215;BME280;6170;42.206;24.142;2023-05-24T07:22:23;98569.03;;;28.02;48.52
12215;BME280;6170;42.206;24.142;2023-05-24T07:24:53;98567.09;;;29.15;47.80
12215;BME280;6170;42.206;24.142;2023-05-24T07:27:21;98570.72;;;28.46;48.43
12215;BME280;6170;42.206;24.142;2023-05-24T07:29:48;98553.66;;;28.96;47.24
12215;BME280;6170;42.206;24.142;2023-05-24T07:32:15;98593.75;;;27.77;46.58
12215;BME280;6170;42.206;24.142;2023-05-24T07:34:42;98557.09;;;27.28;48.83
12215;BME280;6170;42.206;24.142;2023-05-24T07:37:09;98552.16;;;27.39;47.11
12215;BME280;6170;42.206;24.142;2023-05-24T07:39:36;98595.34;;;27.38;50.19
12215;BME280;6170;42.206;24.142;2023-05-24T07:42:03;98557.91;;;27.59;47.65
12215;BME280;6170;42.206;24.142;2023-05-24T07:44:32;98588.06;;;27.73;51.09
12215;BME280;6170;42.206;24.142;2023-05-24T07:46:59;98557.41;;;28.83;47.47
12215;BME280;6170;42.206;24.142;2023-05-24T07:49:26;98557.09;;;28.41;46.80
12215;BME280;6170;42.206;24.142;2023-05-24T07:51:53;98567.38;;;29.22;47.46
12215;BME280;6170;42.206;24.142;2023-05-24T07:54:23;98562.03;;;29.34;48.70
12215;BME280;6170;42.206;24.142;2023-05-24T07:56:50;98564.88;;;28.82;47.48
12215;BME280;6170;42.206;24.142;2023-05-24T07:59:17;98591.97;;;30.41;45.99
12215;BME280;6170;42.206;24.142;2023-05-24T08:01:46;98562.59;;;28.16;47.03
12215;BME280;6170;42.206;24.142;2023-05-24T08:04:13;98566.75;;;29.16;48.62
12215;BME280;6170;42.206;24.142;2023-05-24T08:06:40;98535.22;;;28.62;46.20
12215;BME280;6170;42.206;24.142;2023-05-24T08:09:07;98590.16;;;28.33;45.93
12215;BME280;6170;42.206;24.142;2023-05-24T08:11:34;98561.63;;;28.11;50.21
12215;BME280;6170;42.206;24.142;2023-05-24T08:14:01;98588.22;;;29.02;46.99
12215;BME280;6170;42.206;24.142;2023-05-24T08:16:30;98588.06;;;29.07;48.87
12215;BME280;6170;42.206;24.142;2023-05-24T08:18:58;98585.72;;;29.18;46.21
12215;BME280;6170;42.206;24.142;2023-05-24T08:21:25;98579.16;;;29.86;44.99
12215;BME280;6170;42.206;24.142;2023-05-24T08:23:53;98557.44;;;29.47;45.75
12215;BME280;6170;42.206;24.142;2023-05-24T08:26:21;98586.94;;;29.55;44.15
12215;BME280;6170;42.206;24.142;2023-05-24T08:28:48;98587.19;;;29.24;40.57
12215;BME280;6170;42.206;24.142;2023-05-24T08:31:16;98550.28;;;28.56;44.23
12215;BME280;6170;42.206;24.142;2023-05-24T08:33:42;98576.41;;;28.84;46.50
12215;BME280;6170;42.206;24.142;2023-05-24T08:36:11;98549.00;;;28.62;43.62
12215;BME280;6170;42.206;24.142;2023-05-24T08:38:38;98556.50;;;29.25;44.25
12215;BME280;6170;42.206;24.142;2023-05-24T08:41:05;98549.97;;;28.83;41.22
12215;BME280;6170;42.206;24.142;2023-05-24T08:43:33;98545.28;;;28.49;44.29
12215;BME280;6170;42.206;24.142;2023-05-24T08:46:01;98550.28;;;28.65;44.53
12215;BME280;6170;42.206;24.142;2023-05-24T08:48:30;98559.00;;;29.56;45.72
12215;BME280;6170;42.206;24.142;2023-05-24T08:50:57;98588.34;;;28.11;43.07
12215;BME280;6170;42.206;24.142;2023-05-24T08:53:26;98591.78;;;28.68;43.36
12215;BME280;6170;42.206;24.142;2023-05-24T08:55:53;98560.84;;;28.80;43.99
12215;BME280;6170;42.206;24.142;2023-05-24T08:58:21;98591.47;;;28.35;45.44
12215;BME280;6170;42.206;24.142;2023-05-24T09:00:47;98555.03;;;27.73;43.26
12215;BME280;6170;42.206;24.142;2023-05-24T09:03:15;98586.56;;;29.10;46.44
12215;BME280;6170;42.206;24.142;2023-05-24T09:05:43;98552.69;;;28.92;44.19
12215;BME280;6170;42.206;24.142;2023-05-24T09:08:10;98562.25;;;29.03;41.43
12215;BME280;6170;42.206;24.142;2023-05-24T09:10:39;98551.19;;;29.12;39.49
12215;BME280;6170;42.206;24.142;2023-05-24T09:13:06;98546.81;;;29.57;41.04
12215;BME280;6170;42.206;24.142;2023-05-24T09:15:34;98566.91;;;29.66;40.41
12215;BME280;6170;42.206;24.142;2023-05-24T09:18:01;98554.75;;;29.12;41.67
12215;BME280;6170;42.206;24.142;2023-05-24T09:20:28;98557.38;;;29.00;40.36
12215;BME280;6170;42.206;24.142;2023-05-24T09:22:56;98549.69;;;29.69;42.15
12215;BME280;6170;42.206;24.142;2023-05-24T09:25:26;98550.72;;;29.56;40.37
12215;BME280;6170;42.206;24.142;2023-05-24T09:27:55;98591.59;;;30.01;35.62
12215;BME280;6170;42.206;24.142;2023-05-24T09:30:22;98557.59;;;28.78;40.09
12215;BME280;6170;42.206;24.142;2023-05-24T09:32:56;98557.13;;;28.76;38.87
12215;BME280;6170;42.206;24.142;2023-05-24T09:35:23;98549.00;;;28.71;40.57
12215;BME280;6170;42.206;24.142;2023-05-24T09:37:53;98580.91;;;28.46;39.93
12215;BME280;6170;42.206;24.142;2023-05-24T09:40:22;98552.38;;;28.59;38.04
12215;BME280;6170;42.206;24.142;2023-05-24T09:43:03;98552.41;;;28.76;42.28
12215;BME280;6170;42.206;24.142;2023-05-24T09:45:30;98564.59;;;29.39;40.38
12215;BME280;6170;42.206;24.142;2023-05-24T09:47:57;98560.59;;;29.95;39.96
12215;BME280;6170;42.206;24.142;2023-05-24T09:50:25;98568.75;;;29.92;41.47
12215;BME280;6170;42.206;24.142;2023-05-24T09:52:52;98547.16;;;30.35;41.50
12215;BME280;6170;42.206;24.142;2023-05-24T09:55:21;98562.88;;;29.93;37.73
12215;BME280;6170;42.206;24.142;2023-05-24T09:57:50;98582.09;;;29.52;39.95
12215;BME280;6170;42.206;24.142;2023-05-24T10:00:22;98580.97;;;30.32;38.58
12215;BME280;6170;42.206;24.142;2023-05-24T10:03:00;98543.03;;;29.62;37.60
12215;BME280;6170;42.206;24.142;2023-05-24T10:05:28;98561.00;;;29.76;39.83
12215;BME280;6170;42.206;24.142;2023-05-24T10:07:56;98560.31;;;28.86;37.31
12215;BME280;6170;42.206;24.142;2023-05-24T10:10:25;98543.19;;;29.27;39.64
12215;BME280;6170;42.206;24.142;2023-05-24T10:12:53;98569.63;;;29.75;38.40
12215;BME280;6170;42.206;24.142;2023-05-24T10:15:22;98542.13;;;29.02;38.04
12215;BME280;6170;42.206;24.142;2023-05-24T10:17:50;98530.69;;;29.38;40.86
12215;BME280;6170;42.206;24.142;2023-05-24T10:20:17;98526.66;;;30.15;40.67
12215;BME280;6170;42.206;24.142;2023-05-24T10:22:46;98567.47;;;30.93;40.21
12215;BME280;6170;42.206;24.142;2023-05-24T10:25:14;98535.69;;;30.66;36.23
12215;BME280;6170;42.206;24.142;2023-05-24T10:27:43;98565.94;;;30.83;36.90
12215;BME280;6170;42.206;24.142;2023-05-24T10:30:17;98535.00;;;29.77;36.43
12215;BME280;6170;42.206;24.142;2023-05-24T10:32:47;98529.34;;;30.03;36.24
12215;BME280;6170;42.206;24.142;2023-05-24T10:35:14;98558.94;;;29.73;34.61
12215;BME280;6170;42.206;24.142;2023-05-24T10:37:45;98523.50;;;29.46;39.51
12215;BME280;6170;42.206;24.142;2023-05-24T10:40:18;98513.97;;;28.63;38.09
12215;BME280;6170;42.206;24.142;2023-05-24T10:42:46;98542.16;;;28.77;39.25
12215;BME280;6170;42.206;24.142;2023-05-24T10:45:33;98518.69;;;28.28;41.66
12215;BME280;6170;42.206;24.142;2023-05-24T10:48:32;98556.06;;;28.03;39.69
12215;BME280;6170;42.206;24.142;2023-05-24T10:51:02;98512.47;;;27.40;42.33
12215;BME280;6170;42.206;24.142;2023-05-24T10:53:48;98508.38;;;27.20;38.92
12215;BME280;6170;42.206;24.142;2023-05-24T10:56:15;98557.88;;;27.20;38.71
12215;BME280;6170;42.206;24.142;2023-05-24T10:58:57;98546.56;;;26.68;40.00
12215;BME280;6170;42.206;24.142;2023-05-24T11:01:25;98502.06;;;26.66;39.42
12215;BME280;6170;42.206;24.142;2023-05-24T11:04:07;98506.94;;;26.69;37.84
12215;BME280;6170;42.206;24.142;2023-05-24T11:06:47;98522.94;;;26.45;39.51
12215;BME280;6170;42.206;24.142;2023-05-24T11:09:15;98555.88;;;27.03;39.80
12215;BME280;6170;42.206;24.142;2023-05-24T11:11:46;98515.69;;;26.94;38.72
12215;BME280;6170;42.206;24.142;2023-05-24T11:14:17;98548.84;;;27.28;42.51
12215;BME280;6170;42.206;24.142;2023-05-24T11:16:45;98525.00;;;27.15;39.99
12215;BME280;6170;42.206;24.142;2023-05-24T11:19:18;98507.38;;;27.55;43.90
12215;BME280;6170;42.206;24.142;2023-05-24T11:21:46;98526.91;;;27.45;41.22
12215;BME280;6170;42.206;24.142;2023-05-24T11:24:15;98526.41;;;27.35;40.16
12215;BME280;6170;42.206;24.142;2023-05-24T11:26:43;98520.59;;;27.45;44.44
12215;BME280;6170;42.206;24.142;2023-05-24T11:29:12;98542.91;;;27.83;44.36
12215;BME280;6170;42.206;24.142;2023-05-24T11:31:46;98510.09;;;28.29;42.73
12215;BME280;6170;42.206;24.142;2023-05-24T11:34:13;98514.28;;;28.01;40.32
12215;BME280;6170;42.206;24.142;2023-05-24T11:36:44;98515.22;;;27.79;40.24
12215;BME280;6170;42.206;24.142;2023-05-24T11:39:11;98503.41;;;27.96;39.99
12215;BME280;6170;42.206;24.142;2023-05-24T11:41:39;98514.97;;;27.50;42.57
12215;BME280;6170;42.206;24.142;2023-05-24T11:44:06;98519.78;;;27.92;41.35
12215;BME280;6170;42.206;24.142;2023-05-24T11:46:34;98527.72;;;28.02;42.64
12215;BME280;6170;42.206;24.142;2023-05-24T11:49:01;98497.69;;;27.66;37.98
12215;BME280;6170;42.206;24.142;2023-05-24T11:51:29;98493.84;;;27.85;39.89
12215;BME280;6170;42.206;24.142;2023-05-24T11:53:58;98484.94;;;27.96;41.53
12215;BME280;6170;42.206;24.142;2023-05-24T11:56:27;98484.72;;;27.67;39.45
12215;BME280;6170;42.206;24.142;2023-05-24T11:59:04;98485.59;;;28.62;40.93
12215;BME280;6170;42.206;24.142;2023-05-24T12:01:34;98479.75;;;28.72;45.59
12215;BME280;6170;42.206;24.142;2023-05-24T12:04:04;98484.94;;;28.48;39.69
12215;BME280;6170;42.206;24.142;2023-05-24T12:06:36;98479.94;;;28.33;39.24
12215;BME280;6170;42.206;24.142;2023-05-24T12:09:05;98475.59;;;28.15;39.84
12215;BME280;6170;42.206;24.142;2023-05-24T12:11:38;98519.97;;;28.13;44.32
12215;BME280;6170;42.206;24.142;2023-05-24T12:14:06;98467.41;;;27.75;42.89
12215;BME280;6170;42.206;24.142;2023-05-24T12:16:36;98516.59;;;27.51;42.13
12215;BME280;6170;42.206;24.142;2023-05-24T12:19:04;98472.34;;;27.39;43.60
12215;BME280;6170;42.206;24.142;2023-05-24T12:21:31;98511.53;;;27.92;41.04
12215;BME280;6170;42.206;24.142;2023-05-24T12:24:10;98460.59;;;27.07;44.15
12215;BME280;6170;42.206;24.142;2023-05-24T12:26:41;98470.88;;;27.33;43.88
12215;BME280;6170;42.206;24.142;2023-05-24T12:29:08;98465.59;;;27.53;46.35
12215;BME280;6170;42.206;24.142;2023-05-24T12:31:36;98458.81;;;27.59;45.38
12215;BME280;6170;42.206;24.142;2023-05-24T12:34:03;98490.00;;;27.46;45.79
12215;BME280;6170;42.206;24.142;2023-05-24T12:36:32;98447.50;;;27.52;44.96
12215;BME280;6170;42.206;24.142;2023-05-24T12:39:05;98454.22;;;27.38;43.11
12215;BME280;6170;42.206;24.142;2023-05-24T12:41:43;98449.09;;;27.53;46.62
12215;BME280;6170;42.206;24.142;2023-05-24T12:44:10;98491.06;;;27.67;45.64
12215;BME280;6170;42.206;24.142;2023-05-24T12:46:37;98454.00;;;27.17;42.19
12215;BME280;6170;42.206;24.142;2023-05-24T12:49:04;98454.69;;;27.40;41.29
12215;BME280;6170;42.206;24.142;2023-05-24T12:51:31;98452.75;;;27.40;44.38
12215;BME280;6170;42.206;24.142;2023-05-24T12:53:58;98486.50;;;27.54;44.65
12215;BME280;6170;42.206;24.142;2023-05-24T12:56:29;98449.53;;;26.68;48.99
12215;BME280;6170;42.206;24.142;2023-05-24T12:58:57;98447.00;;;26.80;49.64
12215;BME280;6170;42.206;24.142;2023-05-24T13:01:24;98411.69;;;26.65;50.73
12215;BME280;6170;42.206;24.142;2023-05-24T13:03:51;98453.84;;;26.60;49.53
12215;BME280;6170;42.206;24.142;2023-05-24T13:06:19;98488.44;;;26.61;51.09
12215;BME280;6170;42.206;24.142;2023-05-24T13:08:45;98456.16;;;26.67;51.71